Time;durP1;ratioP1;P1;durP2;ratioP2;P2;SDS_P1;SDS_P2;PMS_P1;PMS_P2;Temp;Humidity;BMP_temperature;BMP_pressure;BME280_temperature;BME280_humidity;BME280_pressure;Samples;Min_cycle;Max_cycle;Signal;HPM_P1;HPM_P2
2022/01/06 00:00:28;;;;;;;8.20;1.65;;;;;;;;;;4981126;28;20072;-88
2022/01/06 00:02:58;;;;;;;9.05;1.63;;;;;;;;;;4987999;28;20033;-85
2022/01/06 00:05:24;;;;;;;8.55;1.45;;;;;;;;;;4984661;28;20113;-86
2022/01/06 00:08:02;;;;;;;11.18;1.70;;;;;;;;;;4983035;28;20180;-87
2022/01/06 00:10:31;;;;;;;11.27;1.67;;;;;;;;;;4984251;28;20035;-85
2022/01/06 00:13:06;;;;;;;8.40;1.98;;;;;;;;;;4986831;28;20065;-86
2022/01/06 00:15:43;;;;;;;12.73;1.58;;;;;;;;;;4977645;28;20420;-86
2022/01/06 00:18:20;;;;;;;13.25;2.10;;;;;;;;;;4986959;28;20117;-87
2022/01/06 00:23:50;;;;;;;10.43;1.70;;;;;;;;;;4961220;28;20038;-86
2022/01/06 00:26:32;;;;;;;9.00;1.42;;;;;;;;;;4979258;28;20384;-85
2022/01/06 00:28:57;;;;;;;5.85;1.20;;;;;;;;;;4978256;28;20470;-86
2022/01/06 00:31:22;;;;;;;8.43;1.77;;;;;;;;;;4978735;28;20030;-87
2022/01/06 00:33:48;;;;;;;9.68;1.42;;;;;;;;;;4979324;28;20038;-86
2022/01/06 00:36:13;;;;;;;9.27;1.70;;;;;;;;;;4985267;28;20404;-87
2022/01/06 00:38:38;;;;;;;6.43;1.98;;;;;;;;;;4979246;28;20479;-85
2022/01/06 00:41:04;;;;;;;8.05;1.58;;;;;;;;;;4981946;28;20118;-86
2022/01/06 00:43:29;;;;;;;7.72;1.50;;;;;;;;;;4978184;28;20117;-87
2022/01/06 00:45:54;;;;;;;11.85;1.70;;;;;;;;;;4986988;28;20480;-84
2022/01/06 00:48:20;;;;;;;8.80;1.65;;;;;;;;;;4971076;28;20038;-85
2022/01/06 00:50:45;;;;;;;10.20;1.40;;;;;;;;;;4979708;28;20027;-88
2022/01/06 00:53:11;;;;;;;8.32;1.50;;;;;;;;;;4979885;28;20038;-86
2022/01/06 00:55:38;;;;;;;7.35;1.40;;;;;;;;;;4984992;28;20037;-84
2022/01/06 00:58:04;;;;;;;10.50;1.42;;;;;;;;;;4981714;28;20510;-84
2022/01/06 01:00:38;;;;;;;10.77;1.55;;;;;;;;;;4980354;28;20034;-86
2022/01/06 01:03:13;;;;;;;9.38;1.63;;;;;;;;;;4985294;28;20037;-88
2022/01/06 01:05:42;;;;;;;7.78;1.67;;;;;;;;;;4978005;28;20068;-87
2022/01/06 01:08:08;;;;;;;10.75;1.80;;;;;;;;;;4981814;28;20023;-87
2022/01/06 01:10:34;;;;;;;7.43;1.63;;;;;;;;;;4984338;28;20041;-84
2022/01/06 01:13:00;;;;;;;9.98;1.55;;;;;;;;;;4984127;28;20030;-87
2022/01/06 01:15:27;;;;;;;10.90;1.90;;;;;;;;;;4982845;28;20101;-85
2022/01/06 01:17:53;;;;;;;10.18;2.45;;;;;;;;;;4975444;28;20109;-85
2022/01/06 01:20:21;;;;;;;8.65;1.77;;;;;;;;;;4983841;28;20063;-84
2022/01/06 01:22:47;;;;;;;10.73;1.83;;;;;;;;;;4980624;28;20030;-86
2022/01/06 01:25:13;;;;;;;7.30;1.45;;;;;;;;;;4981783;28;20080;-85
2022/01/06 01:27:42;;;;;;;10.55;1.80;;;;;;;;;;4982619;28;20026;-86
2022/01/06 01:30:13;;;;;;;12.23;1.90;;;;;;;;;;4996948;28;20503;-87
2022/01/06 01:32:40;;;;;;;9.93;1.55;;;;;;;;;;4981438;28;20062;-85
2022/01/06 01:35:09;;;;;;;7.03;1.52;;;;;;;;;;4985292;28;20050;-84
2022/01/06 01:37:35;;;;;;;8.45;1.35;;;;;;;;;;4981258;28;20040;-86
2022/01/06 01:40:04;;;;;;;9.45;1.50;;;;;;;;;;4980127;28;20256;-86
2022/01/06 01:42:29;;;;;;;9.82;1.60;;;;;;;;;;4999554;28;20037;-88
2022/01/06 01:44:55;;;;;;;8.70;1.48;;;;;;;;;;4977157;28;20034;-87
2022/01/06 01:47:57;;;;;;;8.30;1.88;;;;;;;;;;4983384;28;20029;-87
2022/01/06 01:50:17;;;;;;;;;;;;;;;;;;4982426;28;20117;-86
2022/01/06 01:52:46;;;;;;;11.30;1.45;;;;;;;;;;4988344;28;20409;-84
2022/01/06 01:55:14;;;;;;;7.85;1.75;;;;;;;;;;4981953;28;20036;-87
2022/01/06 01:57:39;;;;;;;8.27;1.45;;;;;;;;;;4983946;28;20034;-84
2022/01/06 02:00:08;;;;;;;15.23;2.03;;;;;;;;;;4978393;28;20369;-84
2022/01/06 02:02:34;;;;;;;7.55;1.40;;;;;;;;;;4985474;28;20319;-86
2022/01/06 02:04:59;;;;;;;8.05;1.30;;;;;;;;;;4974593;28;20081;-86
2022/01/06 02:07:25;;;;;;;8.80;1.48;;;;;;;;;;4981306;28;20066;-87
2022/01/06 02:09:50;;;;;;;8.65;1.48;;;;;;;;;;4983205;28;20084;-86
2022/01/06 02:12:29;;;;;;;12.10;2.05;;;;;;;;;;4983574;28;20544;-87
2022/01/06 02:14:55;;;;;;;5.60;1.30;;;;;;;;;;4976761;28;20424;-86
2022/01/06 02:17:20;;;;;;;12.48;1.48;;;;;;;;;;4983340;28;20027;-85
2022/01/06 02:20:03;;;;;;;8.07;1.45;;;;;;;;;;4979279;28;20543;-86
2022/01/06 02:22:28;;;;;;;5.78;1.45;;;;;;;;;;4998755;28;20038;-86
2022/01/06 02:24:54;;;;;;;9.48;1.50;;;;;;;;;;4982264;28;20404;-88
2022/01/06 02:27:20;;;;;;;6.97;1.45;;;;;;;;;;4980482;28;20371;-85
2022/01/06 02:29:47;;;;;;;6.78;1.83;;;;;;;;;;4984111;28;20034;-87
2022/01/06 02:32:16;;;;;;;9.77;1.77;;;;;;;;;;4982177;28;20157;-85
2022/01/06 02:34:46;;;;;;;6.45;1.35;;;;;;;;;;4984348;28;20523;-85
2022/01/06 02:37:13;;;;;;;7.50;1.50;;;;;;;;;;4982127;28;20129;-86
2022/01/06 02:39:39;;;;;;;11.50;1.52;;;;;;;;;;4983024;28;20614;-86
2022/01/06 02:42:05;;;;;;;9.10;1.02;;;;;;;;;;4981759;28;20058;-85
2022/01/06 02:44:30;;;;;;;9.48;2.05;;;;;;;;;;4976523;28;20030;-85
2022/01/06 02:46:56;;;;;;;8.93;1.42;;;;;;;;;;4977605;28;20714;-87
2022/01/06 02:49:21;;;;;;;5.75;1.20;;;;;;;;;;4982519;28;20129;-86
2022/01/06 02:51:47;;;;;;;11.52;1.83;;;;;;;;;;4979321;28;20440;-84
2022/01/06 02:54:13;;;;;;;8.65;1.83;;;;;;;;;;4980011;28;20026;-86
2022/01/06 02:56:42;;;;;;;4.85;1.20;;;;;;;;;;4971517;28;20444;-86
2022/01/06 02:59:07;;;;;;;7.82;1.13;;;;;;;;;;4982078;28;20030;-86
2022/01/06 03:01:41;;;;;;;6.03;1.70;;;;;;;;;;4979967;28;20030;-84
2022/01/06 03:04:06;;;;;;;12.27;1.45;;;;;;;;;;4982319;28;20076;-86
2022/01/06 03:06:31;;;;;;;8.30;1.55;;;;;;;;;;4979506;28;20440;-84
2022/01/06 03:08:57;;;;;;;12.13;1.52;;;;;;;;;;4981110;28;20041;-87
2022/01/06 03:11:25;;;;;;;10.32;1.95;;;;;;;;;;4980951;28;20392;-84
2022/01/06 03:13:52;;;;;;;9.93;1.60;;;;;;;;;;4979762;28;20030;-86
2022/01/06 03:16:17;;;;;;;9.07;1.75;;;;;;;;;;4980117;28;20046;-86
2022/01/06 03:18:43;;;;;;;12.35;1.83;;;;;;;;;;4983869;28;20057;-86
2022/01/06 03:21:08;;;;;;;9.52;1.58;;;;;;;;;;4980405;28;20022;-86
2022/01/06 03:23:33;;;;;;;9.95;1.63;;;;;;;;;;4974677;28;20042;-85
2022/01/06 03:25:59;;;;;;;9.77;1.85;;;;;;;;;;4979648;28;20036;-86
2022/01/06 03:28:24;;;;;;;9.23;2.30;;;;;;;;;;4982716;28;20620;-84
2022/01/06 03:30:49;;;;;;;14.30;1.70;;;;;;;;;;4976141;28;20043;-86
2022/01/06 03:33:15;;;;;;;6.80;1.67;;;;;;;;;;4979106;28;20053;-84
2022/01/06 03:35:40;;;;;;;11.77;1.50;;;;;;;;;;4980582;28;20108;-86
2022/01/06 03:38:05;;;;;;;9.43;1.33;;;;;;;;;;4984837;28;20137;-86
2022/01/06 03:40:31;;;;;;;7.30;1.63;;;;;;;;;;4986159;28;20180;-84
2022/01/06 03:42:56;;;;;;;10.13;1.63;;;;;;;;;;4980070;28;20629;-88
2022/01/06 03:45:21;;;;;;;8.70;1.80;;;;;;;;;;4979291;28;20034;-88
2022/01/06 03:47:47;;;;;;;11.25;1.50;;;;;;;;;;4978488;28;20138;-86
2022/01/06 03:50:14;;;;;;;10.52;1.88;;;;;;;;;;4978669;28;20061;-86
2022/01/06 03:52:39;;;;;;;9.32;1.77;;;;;;;;;;4989317;28;20042;-84
2022/01/06 03:55:08;;;;;;;6.03;1.35;;;;;;;;;;4983038;28;20408;-84
2022/01/06 03:57:34;;;;;;;8.45;1.73;;;;;;;;;;4979525;28;20048;-87
2022/01/06 04:00:00;;;;;;;8.57;1.50;;;;;;;;;;4986830;28;20479;-86
2022/01/06 04:02:25;;;;;;;8.02;1.40;;;;;;;;;;4975665;28;20019;-86
2022/01/06 04:04:51;;;;;;;7.90;1.52;;;;;;;;;;4985870;28;20798;-86
2022/01/06 04:07:16;;;;;;;10.30;1.83;;;;;;;;;;4979960;28;20033;-87
2022/01/06 04:09:41;;;;;;;6.45;1.40;;;;;;;;;;4985271;28;20050;-86
2022/01/06 04:12:10;;;;;;;5.82;1.58;;;;;;;;;;4979499;28;20033;-86
2022/01/06 04:14:35;;;;;;;7.38;1.63;;;;;;;;;;4984546;28;20038;-84
2022/01/06 04:17:01;;;;;;;7.72;1.30;;;;;;;;;;4982194;28;20115;-87
2022/01/06 04:19:27;;;;;;;8.50;1.38;;;;;;;;;;4987651;28;20031;-86
2022/01/06 04:21:53;;;;;;;8.82;1.33;;;;;;;;;;4981961;28;20142;-86
2022/01/06 04:24:19;;;;;;;9.30;1.50;;;;;;;;;;4986344;28;20393;-86
2022/01/06 04:26:44;;;;;;;7.10;1.15;;;;;;;;;;4987186;28;20038;-86
2022/01/06 04:29:09;;;;;;;7.00;1.30;;;;;;;;;;4990228;28;20026;-86
2022/01/06 04:31:35;;;;;;;7.90;1.25;;;;;;;;;;4982728;28;20026;-86
2022/01/06 04:34:00;;;;;;;10.98;1.55;;;;;;;;;;4985568;28;20030;-85
2022/01/06 04:36:25;;;;;;;5.85;1.30;;;;;;;;;;4974946;28;20511;-86
2022/01/06 04:38:51;;;;;;;5.68;1.30;;;;;;;;;;4982352;28;20121;-88
2022/01/06 04:41:16;;;;;;;4.15;1.23;;;;;;;;;;4983628;28;20042;-86
2022/01/06 04:43:41;;;;;;;7.10;1.20;;;;;;;;;;4974200;28;20026;-87
2022/01/06 04:46:07;;;;;;;4.93;1.00;;;;;;;;;;4983120;28;20062;-85
2022/01/06 04:48:35;;;;;;;6.10;1.25;;;;;;;;;;4998862;28;20460;-84
2022/01/06 04:51:00;;;;;;;7.53;1.55;;;;;;;;;;4982250;28;20022;-87
2022/01/06 04:53:25;;;;;;;6.80;1.05;;;;;;;;;;4980811;28;20753;-88
2022/01/06 04:55:51;;;;;;;7.50;1.30;;;;;;;;;;4979120;28;20038;-86
2022/01/06 04:58:17;;;;;;;6.75;1.40;;;;;;;;;;4978794;28;20089;-88
2022/01/06 05:00:42;;;;;;;12.98;1.60;;;;;;;;;;4981201;28;20597;-83
2022/01/06 05:03:08;;;;;;;7.53;1.73;;;;;;;;;;4978423;28;20058;-86
2022/01/06 05:05:33;;;;;;;9.35;1.33;;;;;;;;;;4981383;28;20042;-88
2022/01/06 05:07:58;;;;;;;10.13;1.50;;;;;;;;;;4983083;28;20022;-88
2022/01/06 05:10:24;;;;;;;10.00;1.83;;;;;;;;;;4982199;28;20080;-88
2022/01/06 05:12:49;;;;;;;6.13;1.15;;;;;;;;;;4983882;28;20439;-86
2022/01/06 05:15:14;;;;;;;5.60;1.13;;;;;;;;;;4981284;28;20054;-85
2022/01/06 05:17:41;;;;;;;5.63;1.10;;;;;;;;;;4983831;28;20077;-87
2022/01/06 05:20:07;;;;;;;6.15;1.52;;;;;;;;;;4979300;28;20041;-87
2022/01/06 05:22:34;;;;;;;7.45;1.65;;;;;;;;;;4985912;28;20113;-85
2022/01/06 05:25:00;;;;;;;6.47;1.40;;;;;;;;;;4979073;28;20057;-86
2022/01/06 05:27:25;;;;;;;6.75;1.20;;;;;;;;;;4981837;28;20772;-84
2022/01/06 05:29:52;;;;;;;7.25;1.00;;;;;;;;;;4979338;28;20084;-85
2022/01/06 05:32:17;;;;;;;4.80;1.20;;;;;;;;;;4985402;28;20502;-84
2022/01/06 05:34:42;;;;;;;8.48;1.95;;;;;;;;;;4979540;28;20139;-87
2022/01/06 05:37:08;;;;;;;6.72;1.20;;;;;;;;;;4977813;28;20574;-85
2022/01/06 05:39:33;;;;;;;7.25;1.17;;;;;;;;;;4983098;28;20672;-87
2022/01/06 05:41:59;;;;;;;7.50;0.93;;;;;;;;;;4976836;28;20034;-86
2022/01/06 05:44:25;;;;;;;8.20;1.55;;;;;;;;;;4981010;28;20113;-87
2022/01/06 05:46:51;;;;;;;5.57;1.20;;;;;;;;;;4982300;28;20046;-87
2022/01/06 05:49:16;;;;;;;5.45;1.27;;;;;;;;;;4977068;28;20045;-87
2022/01/06 05:51:42;;;;;;;7.57;1.40;;;;;;;;;;4980620;28;20034;-84
2022/01/06 05:54:08;;;;;;;9.52;1.50;;;;;;;;;;4981772;28;20477;-86
2022/01/06 05:56:34;;;;;;;4.28;1.17;;;;;;;;;;4981791;28;20030;-87
2022/01/06 05:58:59;;;;;;;11.43;1.60;;;;;;;;;;4977578;28;20034;-88
2022/01/06 06:01:24;;;;;;;8.07;1.52;;;;;;;;;;4980218;28;20030;-86
2022/01/06 06:03:50;;;;;;;10.15;1.50;;;;;;;;;;4981195;28;20042;-86
2022/01/06 06:06:16;;;;;;;8.70;1.70;;;;;;;;;;4980716;28;20141;-86
2022/01/06 06:08:41;;;;;;;9.75;1.40;;;;;;;;;;4983027;28;20072;-85
2022/01/06 06:11:07;;;;;;;7.40;1.63;;;;;;;;;;4979460;28;20481;-85
2022/01/06 06:13:33;;;;;;;6.57;1.67;;;;;;;;;;4983162;28;20134;-84
2022/01/06 06:15:58;;;;;;;9.38;1.50;;;;;;;;;;4980035;28;20096;-86
2022/01/06 06:18:23;;;;;;;6.63;1.25;;;;;;;;;;4981757;28;20522;-88
2022/01/06 06:20:49;;;;;;;4.65;1.10;;;;;;;;;;4977468;28;20057;-87
2022/01/06 06:23:15;;;;;;;7.05;1.40;;;;;;;;;;4981746;28;20040;-87
2022/01/06 06:25:40;;;;;;;7.22;1.30;;;;;;;;;;4977752;28;20088;-88
2022/01/06 06:28:06;;;;;;;8.48;1.52;;;;;;;;;;4978304;28;20071;-85
2022/01/06 06:30:31;;;;;;;5.93;1.55;;;;;;;;;;4978148;28;20058;-85
2022/01/06 06:32:56;;;;;;;6.22;1.70;;;;;;;;;;4985694;28;20117;-88
2022/01/06 06:35:22;;;;;;;6.85;1.85;;;;;;;;;;4980489;28;20109;-87
2022/01/06 06:37:47;;;;;;;7.63;1.52;;;;;;;;;;4977569;28;20110;-87
2022/01/06 06:40:13;;;;;;;8.45;2.28;;;;;;;;;;4974359;28;20041;-87
2022/01/06 06:42:39;;;;;;;12.50;1.60;;;;;;;;;;4980155;28;20030;-88
2022/01/06 06:45:05;;;;;;;5.30;1.40;;;;;;;;;;4979453;28;20030;-87
2022/01/06 06:47:32;;;;;;;5.97;1.50;;;;;;;;;;4986927;28;20041;-87
2022/01/06 06:49:59;;;;;;;5.00;1.35;;;;;;;;;;4986341;28;20071;-87
2022/01/06 06:52:25;;;;;;;6.68;1.20;;;;;;;;;;4976462;28;20810;-88
2022/01/06 06:54:51;;;;;;;4.60;1.30;;;;;;;;;;4982527;28;20476;-84
2022/01/06 06:57:16;;;;;;;6.43;1.33;;;;;;;;;;4982972;28;20029;-87
2022/01/06 06:59:41;;;;;;;5.22;1.30;;;;;;;;;;4980575;28;20034;-87
2022/01/06 07:02:07;;;;;;;5.13;1.20;;;;;;;;;;4972977;28;20023;-85
2022/01/06 07:04:32;;;;;;;6.38;1.10;;;;;;;;;;4977669;28;20061;-86
2022/01/06 07:06:58;;;;;;;3.80;0.95;;;;;;;;;;4981334;28;20374;-88
2022/01/06 07:09:23;;;;;;;6.05;1.67;;;;;;;;;;4976565;28;20062;-87
2022/01/06 07:11:49;;;;;;;7.15;2.15;;;;;;;;;;4980610;28;20056;-87
2022/01/06 07:14:14;;;;;;;4.72;1.20;;;;;;;;;;4982477;28;20137;-87
2022/01/06 07:16:39;;;;;;;5.18;1.20;;;;;;;;;;4985641;28;20117;-84
2022/01/06 07:19:04;;;;;;;7.32;1.10;;;;;;;;;;4985085;28;20921;-87
2022/01/06 07:21:30;;;;;;;6.80;1.77;;;;;;;;;;4978240;28;20397;-87
2022/01/06 07:23:55;;;;;;;5.45;1.13;;;;;;;;;;4989719;28;20042;-84
2022/01/06 07:26:21;;;;;;;8.75;1.30;;;;;;;;;;4985553;28;20061;-88
2022/01/06 07:28:46;;;;;;;8.02;1.20;;;;;;;;;;4982343;28;20117;-87
2022/01/06 07:31:11;;;;;;;4.30;1.15;;;;;;;;;;4976821;28;20066;-85
2022/01/06 07:33:37;;;;;;;6.75;1.40;;;;;;;;;;4984389;28;20485;-87
2022/01/06 07:36:04;;;;;;;5.22;1.50;;;;;;;;;;4984289;28;20201;-88
2022/01/06 07:38:29;;;;;;;5.18;1.60;;;;;;;;;;4996944;28;20026;-88
2022/01/06 07:40:55;;;;;;;6.30;1.58;;;;;;;;;;4986412;28;20020;-84
2022/01/06 07:43:21;;;;;;;7.15;1.70;;;;;;;;;;4986626;28;20136;-88
2022/01/06 07:45:48;;;;;;;5.85;2.00;;;;;;;;;;4984470;28;20042;-87
2022/01/06 07:48:18;;;;;;;4.00;1.40;;;;;;;;;;4981232;28;20038;-87
2022/01/06 07:50:45;;;;;;;5.50;1.50;;;;;;;;;;4984397;28;20341;-87
2022/01/06 07:53:11;;;;;;;10.52;2.10;;;;;;;;;;4988508;28;20108;-87
2022/01/06 07:55:37;;;;;;;7.15;2.13;;;;;;;;;;4991374;28;20058;-88
2022/01/06 07:58:03;;;;;;;6.25;1.83;;;;;;;;;;4984024;28;20189;-87
2022/01/06 08:00:28;;;;;;;7.32;2.22;;;;;;;;;;4978039;28;20116;-87
2022/01/06 08:02:54;;;;;;;7.28;1.95;;;;;;;;;;4986233;28;20113;-84
2022/01/06 08:05:25;;;;;;;9.02;2.25;;;;;;;;;;4985292;28;20038;-85
2022/01/06 08:07:51;;;;;;;6.32;2.10;;;;;;;;;;4978442;28;20100;-88
2022/01/06 08:10:16;;;;;;;6.72;1.85;;;;;;;;;;4983739;28;20165;-88
2022/01/06 08:12:41;;;;;;;9.25;1.75;;;;;;;;;;4988100;28;20510;-89
2022/01/06 08:15:07;;;;;;;6.28;1.73;;;;;;;;;;4980869;28;20042;-85
2022/01/06 08:17:33;;;;;;;6.55;1.85;;;;;;;;;;4990419;28;20025;-87
2022/01/06 08:19:59;;;;;;;6.70;1.90;;;;;;;;;;4982207;28;20027;-89
2022/01/06 08:22:24;;;;;;;7.18;1.92;;;;;;;;;;4992501;28;20034;-90
2022/01/06 08:24:52;;;;;;;4.05;1.90;;;;;;;;;;4989340;28;20023;-85
2022/01/06 08:27:18;;;;;;;6.78;2.38;;;;;;;;;;4989594;28;20034;-89
2022/01/06 08:29:44;;;;;;;6.93;2.35;;;;;;;;;;4985989;28;20489;-86
2022/01/06 08:32:09;;;;;;;9.13;2.08;;;;;;;;;;4987035;28;20033;-87
2022/01/06 08:34:35;;;;;;;9.85;2.40;;;;;;;;;;4989108;28;20034;-88
2022/01/06 08:37:00;;;;;;;8.55;2.55;;;;;;;;;;4987611;28;20048;-89
2022/01/06 08:39:26;;;;;;;8.05;2.53;;;;;;;;;;4990197;28;20045;-86
2022/01/06 08:41:53;;;;;;;9.43;2.17;;;;;;;;;;4988851;28;20513;-88
2022/01/06 08:44:22;;;;;;;10.00;2.40;;;;;;;;;;4988376;28;20038;-87
2022/01/06 08:46:48;;;;;;;7.93;2.53;;;;;;;;;;4986456;28;20034;-89
2022/01/06 08:49:16;;;;;;;7.68;2.55;;;;;;;;;;4979444;28;20022;-87
2022/01/06 08:51:51;;;;;;;7.18;1.83;;;;;;;;;;4985193;28;20025;-87
2022/01/06 08:54:17;;;;;;;7.03;2.10;;;;;;;;;;5003702;28;20034;-88
2022/01/06 08:56:51;;;;;;;7.13;2.17;;;;;;;;;;4986702;28;20026;-89
2022/01/06 08:59:17;;;;;;;11.38;2.17;;;;;;;;;;4980386;28;20065;-88
2022/01/06 09:01:42;;;;;;;5.65;1.85;;;;;;;;;;4983737;28;20230;-89
2022/01/06 09:04:08;;;;;;;11.93;2.47;;;;;;;;;;4983076;28;20034;-89
2022/01/06 09:06:33;;;;;;;6.65;2.08;;;;;;;;;;4976531;28;20065;-89
2022/01/06 09:08:59;;;;;;;7.80;2.10;;;;;;;;;;4980738;28;20073;-89
2022/01/06 09:11:24;;;;;;;6.03;1.70;;;;;;;;;;4984286;28;22340;-87
2022/01/06 09:13:49;;;;;;;8.32;1.85;;;;;;;;;;5002677;28;20536;-88
2022/01/06 09:16:15;;;;;;;7.40;2.47;;;;;;;;;;4986031;28;20029;-87
2022/01/06 09:18:41;;;;;;;8.00;2.00;;;;;;;;;;4984246;28;20036;-89
2022/01/06 09:21:08;;;;;;;8.68;2.30;;;;;;;;;;4978069;28;20026;-85
2022/01/06 09:23:33;;;;;;;7.07;1.88;;;;;;;;;;4987193;28;20045;-84
2022/01/06 09:25:59;;;;;;;8.68;2.38;;;;;;;;;;4988203;28;20121;-88
2022/01/06 09:28:24;;;;;;;5.25;1.60;;;;;;;;;;4996548;28;20022;-86
2022/01/06 09:30:51;;;;;;;11.10;2.28;;;;;;;;;;4977097;28;20027;-88
2022/01/06 09:33:18;;;;;;;7.55;2.35;;;;;;;;;;4978297;28;20034;-88
2022/01/06 09:35:45;;;;;;;10.98;2.50;;;;;;;;;;4982057;28;20745;-87
2022/01/06 09:38:11;;;;;;;6.22;1.98;;;;;;;;;;4977764;28;20053;-84
2022/01/06 09:40:39;;;;;;;7.03;2.15;;;;;;;;;;4981340;28;20531;-85
2022/01/06 09:43:04;;;;;;;8.50;2.78;;;;;;;;;;4982417;28;20492;-86
2022/01/06 09:45:32;;;;;;;9.07;3.13;;;;;;;;;;4984446;28;20089;-84
2022/01/06 09:47:57;;;;;;;9.68;3.17;;;;;;;;;;4980998;28;20130;-86
2022/01/06 09:50:23;;;;;;;7.72;2.70;;;;;;;;;;4978114;28;20125;-86
2022/01/06 09:52:50;;;;;;;12.95;3.30;;;;;;;;;;4978215;28;20065;-86
2022/01/06 09:55:16;;;;;;;8.88;3.20;;;;;;;;;;4981468;28;20026;-86
2022/01/06 09:57:53;;;;;;;6.13;2.65;;;;;;;;;;4989564;28;20092;-85
2022/01/06 10:00:19;;;;;;;10.43;2.90;;;;;;;;;;4977886;28;20034;-87
2022/01/06 10:02:56;;;;;;;7.80;2.30;;;;;;;;;;4982370;28;20030;-85
2022/01/06 10:05:23;;;;;;;8.48;3.10;;;;;;;;;;4978278;28;20027;-87
2022/01/06 10:07:48;;;;;;;8.95;2.50;;;;;;;;;;4984458;28;20030;-86
2022/01/06 10:10:15;;;;;;;7.82;2.40;;;;;;;;;;4975256;28;20041;-87
2022/01/06 10:12:42;;;;;;;10.95;2.35;;;;;;;;;;4980389;28;20066;-84
2022/01/06 10:15:21;;;;;;;15.02;3.38;;;;;;;;;;4977247;28;20062;-86
2022/01/06 10:17:48;;;;;;;11.27;2.80;;;;;;;;;;4976485;28;20030;-85
2022/01/06 10:20:20;;;;;;;12.30;2.70;;;;;;;;;;4984651;28;20391;-85
2022/01/06 10:22:49;;;;;;;9.68;2.90;;;;;;;;;;4980090;28;20052;-85
2022/01/06 10:25:16;;;;;;;9.23;2.75;;;;;;;;;;4978031;28;20113;-85
2022/01/06 10:27:44;;;;;;;7.32;3.13;;;;;;;;;;4994644;28;20030;-85
2022/01/06 10:30:10;;;;;;;10.35;3.80;;;;;;;;;;4981749;28;20045;-86
2022/01/06 10:32:38;;;;;;;7.57;2.78;;;;;;;;;;4976760;28;20033;-85
2022/01/06 10:35:05;;;;;;;9.48;2.42;;;;;;;;;;4976326;28;20089;-84
2022/01/06 10:37:38;;;;;;;8.65;2.90;;;;;;;;;;4982060;28;20026;-84
2022/01/06 10:40:08;;;;;;;9.30;2.80;;;;;;;;;;4982406;28;20030;-84
2022/01/06 10:42:39;;;;;;;10.85;3.67;;;;;;;;;;4981282;28;20053;-85
2022/01/06 10:45:11;;;;;;;9.52;3.17;;;;;;;;;;4981941;28;20157;-85
2022/01/06 10:47:44;;;;;;;9.98;3.63;;;;;;;;;;4976001;28;20030;-85
2022/01/06 10:50:21;;;;;;;10.23;3.50;;;;;;;;;;4985958;28;20057;-86
2022/01/06 10:53:00;;;;;;;11.23;3.50;;;;;;;;;;4979342;28;20077;-86
2022/01/06 10:55:30;;;;;;;10.95;3.70;;;;;;;;;;4980488;28;20041;-84
2022/01/06 10:58:11;;;;;;;14.60;3.65;;;;;;;;;;4989751;28;20507;-84
2022/01/06 11:00:38;;;;;;;12.15;3.42;;;;;;;;;;4982055;28;20034;-86
2022/01/06 11:03:21;;;;;;;9.60;3.75;;;;;;;;;;4987167;28;20030;-84
2022/01/06 11:05:59;;;;;;;13.65;3.58;;;;;;;;;;4981121;28;20110;-84
2022/01/06 11:08:32;;;;;;;11.73;3.15;;;;;;;;;;4982707;28;20062;-84
2022/01/06 11:11:15;;;;;;;13.20;3.20;;;;;;;;;;4982451;28;20025;-84
2022/01/06 11:13:47;;;;;;;9.95;3.05;;;;;;;;;;4986749;28;20031;-85
2022/01/06 11:16:17;;;;;;;11.13;3.38;;;;;;;;;;4984369;28;20507;-85
2022/01/06 11:18:52;;;;;;;16.13;3.78;;;;;;;;;;4984814;28;20126;-86
2022/01/06 11:21:23;;;;;;;8.93;3.08;;;;;;;;;;4984328;28;20076;-85
2022/01/06 11:24:02;;;;;;;8.18;2.83;;;;;;;;;;4984650;28;20071;-84
2022/01/06 11:26:28;;;;;;;7.95;3.03;;;;;;;;;;4980747;28;20065;-84
2022/01/06 11:28:58;;;;;;;13.48;3.33;;;;;;;;;;4986338;28;20476;-84
2022/01/06 11:31:26;;;;;;;11.15;2.90;;;;;;;;;;4979411;28;20495;-84
2022/01/06 11:33:54;;;;;;;14.32;3.10;;;;;;;;;;4983902;28;20567;-86
2022/01/06 11:36:31;;;;;;;7.97;2.17;;;;;;;;;;4983512;28;20026;-84
2022/01/06 11:38:59;;;;;;;8.98;2.60;;;;;;;;;;4995657;28;20030;-87
2022/01/06 11:41:35;;;;;;;14.90;2.50;;;;;;;;;;4991502;28;20562;-84
2022/01/06 11:44:02;;;;;;;12.52;2.63;;;;;;;;;;4990757;28;20616;-84
2022/01/06 11:46:40;;;;;;;10.73;2.78;;;;;;;;;;4992707;28;20081;-84
2022/01/06 11:49:06;;;;;;;12.45;2.60;;;;;;;;;;4981342;28;20054;-85
2022/01/06 11:51:33;;;;;;;9.70;2.90;;;;;;;;;;4990822;28;20026;-83
2022/01/06 11:54:10;;;;;;;13.13;2.78;;;;;;;;;;4985700;28;20022;-85
2022/01/06 11:56:43;;;;;;;6.15;3.00;;;;;;;;;;4983903;28;20093;-86
2022/01/06 11:59:10;;;;;;;11.10;2.58;;;;;;;;;;4980647;28;20026;-83
2022/01/06 12:01:49;;;;;;;10.13;3.05;;;;;;;;;;4982736;28;20065;-85
2022/01/06 12:04:20;;;;;;;8.68;2.78;;;;;;;;;;4989096;28;20042;-84
2022/01/06 12:06:47;;;;;;;14.07;3.08;;;;;;;;;;4985181;28;20456;-84
2022/01/06 12:09:20;;;;;;;10.05;2.22;;;;;;;;;;4985876;28;20061;-84
2022/01/06 12:11:57;;;;;;;9.95;2.25;;;;;;;;;;4985383;28;20022;-86
2022/01/06 12:14:24;;;;;;;15.15;2.72;;;;;;;;;;4985052;28;20129;-84
2022/01/06 12:16:50;;;;;;;8.45;2.00;;;;;;;;;;4991348;28;20046;-85
2022/01/06 12:19:18;;;;;;;14.20;2.08;;;;;;;;;;4990921;28;20033;-85
2022/01/06 12:21:44;;;;;;;8.73;2.45;;;;;;;;;;4990890;28;20031;-84
2022/01/06 12:24:11;;;;;;;11.75;2.40;;;;;;;;;;4989832;28;20032;-85
2022/01/06 12:26:37;;;;;;;13.82;2.65;;;;;;;;;;4990749;28;20037;-84
2022/01/06 12:29:06;;;;;;;9.27;2.30;;;;;;;;;;4990965;28;20427;-83
2022/01/06 12:31:33;;;;;;;9.38;1.88;;;;;;;;;;4994378;28;20053;-85
2022/01/06 12:34:01;;;;;;;8.43;1.80;;;;;;;;;;4987991;28;20033;-85
2022/01/06 12:36:29;;;;;;;8.65;1.90;;;;;;;;;;4984584;28;20114;-85
2022/01/06 12:38:56;;;;;;;8.95;2.40;;;;;;;;;;4986647;28;20086;-85
2022/01/06 12:41:28;;;;;;;12.00;2.20;;;;;;;;;;4980734;28;20039;-85
2022/01/06 12:43:55;;;;;;;12.05;2.35;;;;;;;;;;4973152;28;20085;-85
2022/01/06 12:46:21;;;;;;;8.07;2.00;;;;;;;;;;4996573;28;20452;-86
2022/01/06 12:48:53;;;;;;;11.18;1.70;;;;;;;;;;4976711;28;20034;-83
2022/01/06 12:51:21;;;;;;;4.85;1.35;;;;;;;;;;4979423;28;20033;-86
2022/01/06 12:53:48;;;;;;;10.40;1.83;;;;;;;;;;4995314;28;20018;-84
2022/01/06 12:56:35;;;;;;;8.30;1.80;;;;;;;;;;4973254;28;20057;-85
2022/01/06 12:59:10;;;;;;;8.57;1.50;;;;;;;;;;4971906;28;20041;-85
2022/01/06 13:01:36;;;;;;;9.80;2.00;;;;;;;;;;4981380;28;20030;-84
2022/01/06 13:04:02;;;;;;;7.40;1.75;;;;;;;;;;4974379;28;20504;-84
2022/01/06 13:06:30;;;;;;;8.50;1.65;;;;;;;;;;4974860;28;20076;-85
2022/01/06 13:08:57;;;;;;;11.43;2.00;;;;;;;;;;4977865;28;20029;-86
2022/01/06 13:11:45;;;;;;;12.30;2.10;;;;;;;;;;4974486;28;20117;-84
2022/01/06 13:14:10;;;;;;;7.00;1.92;;;;;;;;;;4978234;28;20062;-85
2022/01/06 13:16:35;;;;;;;6.45;1.60;;;;;;;;;;4974395;28;20078;-85
2022/01/06 13:19:07;;;;;;;10.73;2.38;;;;;;;;;;4972040;28;20026;-84
2022/01/06 13:21:35;;;;;;;12.27;1.98;;;;;;;;;;4991542;28;20058;-85
2022/01/06 13:24:13;;;;;;;10.35;2.10;;;;;;;;;;4974641;28;20037;-83
2022/01/06 13:26:56;;;;;;;7.40;2.00;;;;;;;;;;4979775;28;20058;-84
2022/01/06 13:29:41;;;;;;;9.60;2.13;;;;;;;;;;4979280;28;20043;-85
2022/01/06 13:32:22;;;;;;;9.48;2.45;;;;;;;;;;4981439;28;20030;-85
2022/01/06 13:35:00;;;;;;;9.88;3.15;;;;;;;;;;4975340;28;20113;-86
2022/01/06 13:37:28;;;;;;;13.73;4.53;;;;;;;;;;4979532;28;20031;-84
2022/01/06 13:40:00;;;;;;;9.90;2.35;;;;;;;;;;4973427;28;20028;-84
2022/01/06 13:42:35;;;;;;;10.70;2.33;;;;;;;;;;4977276;28;20038;-84
2022/01/06 13:45:09;;;;;;;7.45;2.05;;;;;;;;;;4989344;28;20029;-86
2022/01/06 13:47:56;;;;;;;8.02;1.95;;;;;;;;;;4980206;28;20062;-84
2022/01/06 13:53:18;;;;;;;11.73;3.10;;;;;;;;;;4982851;28;20867;-86
2022/01/06 13:55:59;;;;;;;9.93;2.92;;;;;;;;;;4977804;28;20093;-86
2022/01/06 13:58:25;;;;;;;8.43;2.42;;;;;;;;;;4979768;28;20042;-84
2022/01/06 14:00:52;;;;;;;9.93;2.85;;;;;;;;;;4974076;28;20477;-85
2022/01/06 14:09:55;;;;;;;;;;;;;;;;;;;;;
2022/01/06 14:12:47;;;;;;;13.55;3.53;;;;;;;;;;4876575;29;20870;-84
2022/01/06 14:15:19;;;;;;;9.57;2.50;;;;;;;;;;4833392;29;20056;-86
2022/01/06 14:17:48;;;;;;;11.20;3.85;;;;;;;;;;4829475;29;20053;-85
2022/01/06 14:20:16;;;;;;;10.07;4.40;;;;;;;;;;4876406;28;20051;-83
2022/01/06 14:22:48;;;;;;;11.52;3.92;;;;;;;;;;4947818;28;20524;-86
2022/01/06 14:25:48;;;;;;;16.27;6.25;;;;;;;;;;4931094;28;20611;-86
2022/01/06 14:28:20;;;;;;;11.25;4.30;;;;;;;;;;4873744;29;20041;-86
2022/01/06 14:30:48;;;;;;;10.88;3.95;;;;;;;;;;4872587;29;20867;-86
2022/01/06 14:33:19;;;;;;;13.75;4.10;;;;;;;;;;4854374;29;20113;-86
2022/01/06 14:35:48;;;;;;;9.90;3.30;;;;;;;;;;4871752;29;20043;-86
2022/01/06 14:38:19;;;;;;;12.02;4.07;;;;;;;;;;4856974;29;22606;-83
2022/01/06 14:40:51;;;;;;;15.82;4.38;;;;;;;;;;4855228;29;20514;-83
2022/01/06 14:43:20;;;;;;;13.52;4.03;;;;;;;;;;4943355;28;20149;-84
2022/01/06 14:45:50;;;;;;;12.05;4.90;;;;;;;;;;5020415;28;20135;-85
2022/01/06 14:48:16;;;;;;;10.55;4.57;;;;;;;;;;5019325;28;20028;-85
2022/01/06 14:50:53;;;;;;;18.65;4.90;;;;;;;;;;5006279;28;20026;-85
2022/01/06 14:53:22;;;;;;;16.00;4.88;;;;;;;;;;5007420;28;20041;-86
2022/01/06 14:55:53;;;;;;;14.52;5.00;;;;;;;;;;5007142;28;20025;-85
2022/01/06 14:58:22;;;;;;;16.50;5.38;;;;;;;;;;5004402;28;20397;-84